createdAt,value
2023-03-28T00:01:25.345Z,94.27
2023-03-28T00:03:51.811Z,94.30
2023-03-28T00:06:18.167Z,94.20
2023-03-28T00:08:44.533Z,94.03
2023-03-28T00:11:10.909Z,94.08
2023-03-28T00:13:37.250Z,93.95
2023-03-28T00:16:03.738Z,93.77
2023-03-28T00:18:30.044Z,93.65
2023-03-28T00:20:56.425Z,93.53
2023-03-28T00:23:22.813Z,93.49
2023-03-28T00:25:49.192Z,93.43
2023-03-28T00:28:15.508Z,93.21
2023-03-28T00:30:41.903Z,93.12
2023-03-28T00:33:08.259Z,93.03
2023-03-28T00:35:34.667Z,93.03
2023-03-28T00:38:00.943Z,93.02
2023-03-28T00:40:27.285Z,92.95
2023-03-28T00:42:53.672Z,92.98
2023-03-28T00:45:20.291Z,93.00
2023-03-28T00:47:46.666Z,92.96
2023-03-28T00:50:12.985Z,92.95
2023-03-28T00:52:39.367Z,92.91
2023-03-28T00:55:05.738Z,92.89
2023-03-28T00:57:32.174Z,92.79
2023-03-28T00:59:58.445Z,92.61
2023-03-28T01:02:24.933Z,92.50
2023-03-28T01:04:51.115Z,92.51
2023-03-28T01:07:17.475Z,92.65
2023-03-28T01:09:43.822Z,92.80
2023-03-28T01:12:10.172Z,92.81
2023-03-28T01:14:36.515Z,92.79
2023-03-28T01:17:02.833Z,92.75
2023-03-28T01:19:29.181Z,92.81
2023-03-28T01:21:55.537Z,92.79
2023-03-28T01:24:21.865Z,92.83
2023-03-28T01:26:48.241Z,92.75
2023-03-28T01:29:14.621Z,92.75
2023-03-28T01:31:41.039Z,92.67
2023-03-28T01:34:07.367Z,92.58
2023-03-28T01:36:35.610Z,92.42
2023-03-28T01:39:00.025Z,92.36
2023-03-28T01:41:26.340Z,92.24
2023-03-28T01:43:52.694Z,92.22
2023-03-28T01:46:19.076Z,92.25
2023-03-28T01:48:45.422Z,92.25
2023-03-28T01:51:11.755Z,92.21
2023-03-28T01:53:38.128Z,92.20
2023-03-28T01:56:04.505Z,92.23
2023-03-28T01:58:30.864Z,92.05
2023-03-28T02:00:57.239Z,91.80
2023-03-28T02:03:23.619Z,91.71
2023-03-28T02:05:49.936Z,91.74
2023-03-28T02:08:16.290Z,91.70
2023-03-28T02:10:42.648Z,91.69
2023-03-28T02:13:09.042Z,91.58
2023-03-28T02:15:35.416Z,91.51
2023-03-28T02:18:01.832Z,91.58
2023-03-28T02:20:28.122Z,91.55
2023-03-28T02:22:54.455Z,91.57
2023-03-28T02:25:20.778Z,91.56
2023-03-28T02:27:47.207Z,91.60
2023-03-28T02:30:13.532Z,91.66
2023-03-28T02:32:39.883Z,91.67
2023-03-28T02:35:06.255Z,91.63
2023-03-28T02:37:32.664Z,91.53
2023-03-28T02:39:59.024Z,91.48
2023-03-28T02:42:25.378Z,91.44
2023-03-28T02:44:51.730Z,91.29
2023-03-28T02:47:18.084Z,91.36
2023-03-28T02:49:50.368Z,91.36
2023-03-28T02:52:10.843Z,91.36
2023-03-28T02:54:37.203Z,91.43
2023-03-28T02:57:03.556Z,91.47
2023-03-28T02:59:29.881Z,91.53
2023-03-28T03:01:56.274Z,91.61
2023-03-28T03:04:22.563Z,91.60
2023-03-28T03:06:49.202Z,91.70
2023-03-28T03:09:15.541Z,91.71
2023-03-28T03:11:42.081Z,91.61
2023-03-28T03:14:08.370Z,91.46
2023-03-28T03:16:34.836Z,91.26
2023-03-28T03:19:01.116Z,91.17
2023-03-28T03:21:27.480Z,91.19
2023-03-28T03:23:53.844Z,91.29
2023-03-28T03:26:20.212Z,91.37
2023-03-28T03:28:46.557Z,91.42
2023-03-28T03:31:12.952Z,91.46
2023-03-28T03:33:39.292Z,91.50
2023-03-28T03:36:05.793Z,91.42
2023-03-28T03:38:32.030Z,91.27
2023-03-28T03:40:58.462Z,91.30
2023-03-28T03:43:24.822Z,91.42
2023-03-28T03:45:51.228Z,91.33
2023-03-28T03:48:17.583Z,91.29
2023-03-28T03:50:43.965Z,91.36
2023-03-28T03:53:10.267Z,91.40
2023-03-28T03:55:36.616Z,91.43
2023-03-28T03:58:02.954Z,91.30
2023-03-28T04:00:29.359Z,91.29
2023-03-28T04:02:55.723Z,91.26
2023-03-28T04:05:22.080Z,91.28
2023-03-28T04:07:48.469Z,91.32
2023-03-28T04:10:14.811Z,91.19
2023-03-28T04:12:41.162Z,91.22
2023-03-28T04:15:07.582Z,91.18
2023-03-28T04:17:33.952Z,91.15
2023-03-28T04:20:00.297Z,91.19
2023-03-28T04:22:26.663Z,91.11
2023-03-28T04:24:53.024Z,91.13
2023-03-28T04:27:19.341Z,91.16
2023-03-28T04:29:45.729Z,91.12
2023-03-28T04:32:12.089Z,91.14
2023-03-28T04:34:39.061Z,91.20
2023-03-28T04:37:04.772Z,91.45
2023-03-28T04:39:31.111Z,100.00
2023-03-28T04:41:57.481Z,100.00
2023-03-28T04:44:24.132Z,100.00
2023-03-28T04:46:50.487Z,100.00
2023-03-28T04:49:16.887Z,100.00
2023-03-28T04:51:43.278Z,100.00
2023-03-28T04:54:09.688Z,100.00
2023-03-28T04:56:37.112Z,100.00
2023-03-28T04:59:03.502Z,99.78
2023-03-28T05:01:29.850Z,98.69
2023-03-28T05:03:56.144Z,98.29
2023-03-28T05:06:24.735Z,98.52
2023-03-28T05:08:51.092Z,99.13
2023-03-28T05:11:17.465Z,99.96
2023-03-28T05:13:43.853Z,100.00
2023-03-28T05:16:12.659Z,100.00
2023-03-28T05:18:38.966Z,100.00
2023-03-28T05:21:05.273Z,100.00
2023-03-28T05:23:31.648Z,100.00
2023-03-28T05:25:58.010Z,100.00
2023-03-28T05:28:24.388Z,100.00
2023-03-28T05:30:50.713Z,100.00
2023-03-28T05:33:17.133Z,100.00
2023-03-28T05:35:43.529Z,100.00
2023-03-28T05:38:09.826Z,100.00
2023-03-28T05:40:36.216Z,100.00
2023-03-28T05:43:02.580Z,100.00
2023-03-28T05:45:28.946Z,100.00
2023-03-28T05:47:55.278Z,100.00
2023-03-28T05:50:21.651Z,100.00
2023-03-28T05:52:48.009Z,100.00
2023-03-28T05:55:14.386Z,100.00
2023-03-28T05:57:40.814Z,100.00
2023-03-28T06:00:09.026Z,100.00
2023-03-28T06:02:35.353Z,100.00
2023-03-28T06:05:01.848Z,100.00
2023-03-28T06:07:39.354Z,100.00
2023-03-28T06:09:54.771Z,100.00
2023-03-28T06:12:21.173Z,100.00
2023-03-28T06:14:47.574Z,100.00
2023-03-28T06:17:14.000Z,100.00
2023-03-28T06:19:40.316Z,100.00
2023-03-28T06:22:06.678Z,100.00
2023-03-28T06:24:33.058Z,100.00
2023-03-28T06:26:59.396Z,100.00
2023-03-28T06:29:25.825Z,100.00
2023-03-28T06:31:52.249Z,100.00
2023-03-28T06:34:18.516Z,100.00
2023-03-28T06:36:44.894Z,100.00
2023-03-28T06:39:11.259Z,100.00
2023-03-28T06:41:37.624Z,100.00
2023-03-28T06:44:04.006Z,100.00
2023-03-28T06:46:30.360Z,100.00
2023-03-28T06:48:56.839Z,100.00
2023-03-28T06:51:23.210Z,100.00
2023-03-28T06:53:49.631Z,100.00
2023-03-28T06:56:15.942Z,100.00
2023-03-28T06:58:42.355Z,100.00
2023-03-28T07:01:08.718Z,100.00
2023-03-28T07:03:35.181Z,100.00
2023-03-28T07:06:01.429Z,100.00
2023-03-28T07:08:28.195Z,100.00
2023-03-28T07:10:54.555Z,100.00
2023-03-28T07:13:20.898Z,100.00
2023-03-28T07:15:47.303Z,100.00
2023-03-28T07:18:13.687Z,100.00
2023-03-28T07:20:41.056Z,100.00
2023-03-28T07:23:07.470Z,100.00
2023-03-28T07:25:33.887Z,100.00
2023-03-28T07:28:00.218Z,100.00
2023-03-28T07:30:26.656Z,100.00
2023-03-28T07:33:01.676Z,100.00
2023-03-28T07:35:19.326Z,100.00
2023-03-28T07:37:46.050Z,100.00
2023-03-28T07:40:12.396Z,100.00
2023-03-28T07:42:38.809Z,100.00
2023-03-28T07:45:05.245Z,100.00
2023-03-28T07:47:31.668Z,100.00
2023-03-28T07:49:57.953Z,100.00
2023-03-28T07:52:24.386Z,100.00
2023-03-28T07:54:50.742Z,100.00
2023-03-28T07:57:17.256Z,100.00
2023-03-28T07:59:43.735Z,100.00
2023-03-28T08:02:10.130Z,100.00
2023-03-28T08:04:36.453Z,100.00
2023-03-28T08:07:02.846Z,100.00
2023-03-28T08:09:29.210Z,100.00
2023-03-28T08:11:55.561Z,100.00
2023-03-28T08:14:22.226Z,100.00
2023-03-28T08:16:48.624Z,100.00
2023-03-28T08:19:15.038Z,100.00
2023-03-28T08:21:41.391Z,100.00
2023-03-28T08:24:07.956Z,100.00
2023-03-28T08:26:34.320Z,100.00
2023-03-28T08:29:00.692Z,100.00
2023-03-28T08:31:27.052Z,100.00
2023-03-28T08:33:53.362Z,100.00
2023-03-28T08:36:19.742Z,100.00
2023-03-28T08:38:46.117Z,100.00
2023-03-28T08:41:12.456Z,100.00
2023-03-28T08:43:38.821Z,100.00
2023-03-28T08:46:05.262Z,100.00
2023-03-28T08:48:31.602Z,100.00
2023-03-28T08:50:58.032Z,100.00
2023-03-28T08:53:24.395Z,100.00
2023-03-28T08:55:52.301Z,100.00
2023-03-28T08:58:17.030Z,100.00
2023-03-28T09:00:43.390Z,100.00
2023-03-28T09:03:09.801Z,100.00
2023-03-28T09:05:36.101Z,100.00
2023-03-28T09:08:02.475Z,100.00
2023-03-28T09:10:28.889Z,100.00
2023-03-28T09:12:55.250Z,100.00
2023-03-28T09:15:21.580Z,100.00
2023-03-28T09:17:48.169Z,100.00
2023-03-28T09:20:14.523Z,100.00
2023-03-28T09:22:40.906Z,100.00
2023-03-28T09:25:07.313Z,100.00
2023-03-28T09:27:33.676Z,100.00
2023-03-28T09:30:00.122Z,100.00
2023-03-28T09:32:26.671Z,100.00
2023-03-28T09:34:53.012Z,100.00
2023-03-28T09:37:19.379Z,100.00
2023-03-28T09:39:45.729Z,100.00
2023-03-28T09:42:12.130Z,100.00
2023-03-28T09:44:50.970Z,100.00
2023-03-28T09:47:04.887Z,100.00
2023-03-28T09:49:31.251Z,100.00
2023-03-28T09:51:57.594Z,100.00
2023-03-28T09:54:23.973Z,100.00
2023-03-28T09:56:50.349Z,100.00
2023-03-28T09:59:16.725Z,100.00
2023-03-28T10:01:43.122Z,100.00
2023-03-28T10:04:09.529Z,100.00
2023-03-28T10:06:35.830Z,100.00
2023-03-28T10:09:02.295Z,100.00
2023-03-28T10:11:28.620Z,100.00
2023-03-28T10:13:55.009Z,100.00
2023-03-28T10:16:21.412Z,99.38
2023-03-28T10:18:47.789Z,98.95
2023-03-28T10:21:14.331Z,99.44
2023-03-28T10:23:40.746Z,100.00
2023-03-28T10:26:07.152Z,100.00
2023-03-28T10:28:33.802Z,100.00
2023-03-28T10:31:00.275Z,99.73
2023-03-28T10:33:26.513Z,98.29
2023-03-28T10:35:53.028Z,97.08
2023-03-28T10:38:19.347Z,96.22
2023-03-28T10:40:45.693Z,95.62
2023-03-28T10:43:12.099Z,95.51
2023-03-28T10:45:38.431Z,97.18
2023-03-28T10:48:04.920Z,98.91
2023-03-28T10:50:31.161Z,100.00
2023-03-28T10:52:57.556Z,100.00
2023-03-28T10:55:24.059Z,99.03
2023-03-28T10:57:50.397Z,97.27
2023-03-28T11:00:16.732Z,96.27
2023-03-28T11:02:43.205Z,96.94
2023-03-28T11:05:09.545Z,98.23
2023-03-28T11:07:35.975Z,97.83
2023-03-28T11:10:02.301Z,98.20
2023-03-28T11:12:31.011Z,97.69
2023-03-28T11:14:55.129Z,96.92
2023-03-28T11:17:21.534Z,96.92
2023-03-28T11:19:48.100Z,97.72
2023-03-28T11:22:14.488Z,97.93
2023-03-28T11:24:40.895Z,96.64
2023-03-28T11:27:15.352Z,95.23
2023-03-28T11:29:42.593Z,94.19
2023-03-28T11:32:00.205Z,93.93
2023-03-28T11:34:26.505Z,93.68
2023-03-28T11:36:52.903Z,92.98
2023-03-28T11:39:19.332Z,92.36
2023-03-28T11:41:45.774Z,91.52
2023-03-28T11:44:12.026Z,90.57
2023-03-28T11:46:38.526Z,89.86
2023-03-28T11:49:04.814Z,89.40
2023-03-28T11:51:31.178Z,88.98
2023-03-28T11:53:57.734Z,88.17
2023-03-28T11:56:24.111Z,87.99
2023-03-28T11:58:50.429Z,88.00
2023-03-28T12:01:16.881Z,87.83
2023-03-28T12:03:43.273Z,87.89
2023-03-28T12:06:10.946Z,87.82
2023-03-28T12:08:35.949Z,87.54
2023-03-28T12:11:02.508Z,86.92
2023-03-28T12:13:28.909Z,86.60
2023-03-28T12:15:55.324Z,86.10
2023-03-28T12:18:21.722Z,85.83
2023-03-28T12:20:48.104Z,85.32
2023-03-28T12:23:14.489Z,84.60
2023-03-28T12:25:41.348Z,83.96
2023-03-28T12:28:07.737Z,83.88
2023-03-28T12:30:34.125Z,83.75
2023-03-28T12:33:00.507Z,84.02
2023-03-28T12:35:26.871Z,83.90
2023-03-28T12:37:53.383Z,83.46
2023-03-28T12:40:19.717Z,83.71
2023-03-28T12:42:46.103Z,83.69
2023-03-28T12:45:12.468Z,83.72
2023-03-28T12:47:38.837Z,83.30
2023-03-28T12:50:05.193Z,82.80
2023-03-28T12:52:31.822Z,82.65
2023-03-28T12:55:00.844Z,82.07
2023-03-28T12:59:51.016Z,81.41
2023-03-28T13:02:17.338Z,80.75
2023-03-28T13:04:44.313Z,80.41
2023-03-28T13:07:10.778Z,80.48
2023-03-28T13:09:37.174Z,80.56
2023-03-28T13:12:03.580Z,80.34
2023-03-28T13:14:30.473Z,80.30
2023-03-28T13:16:56.811Z,80.47
2023-03-28T13:19:23.208Z,80.76
2023-03-28T13:21:49.663Z,81.13
2023-03-28T13:24:16.039Z,81.80
2023-03-28T13:26:42.407Z,82.56
2023-03-28T13:29:08.991Z,83.10
2023-03-28T13:31:35.334Z,83.72
2023-03-28T13:34:01.970Z,84.01
2023-03-28T13:36:28.106Z,84.50
2023-03-28T13:38:54.443Z,84.50
2023-03-28T13:41:20.752Z,83.44
2023-03-28T13:43:47.147Z,72.91
2023-03-28T13:46:13.600Z,65.04
2023-03-28T13:48:39.888Z,61.91
2023-03-28T13:51:06.272Z,59.01
2023-03-28T13:53:46.432Z,57.35
2023-03-28T13:55:59.267Z,56.02
2023-03-28T13:58:25.368Z,55.25
2023-03-28T14:00:51.695Z,54.86
2023-03-28T14:03:18.410Z,54.28
2023-03-28T14:05:44.628Z,52.96
2023-03-28T14:08:11.003Z,52.11
2023-03-28T14:10:37.417Z,50.94
2023-03-28T14:13:03.773Z,50.33
2023-03-28T14:15:30.438Z,50.11
2023-03-28T14:17:56.518Z,49.52
2023-03-28T14:20:22.900Z,49.22
2023-03-28T14:22:59.871Z,48.75
2023-03-28T14:25:15.881Z,48.83
2023-03-28T14:27:42.263Z,48.40
2023-03-28T14:30:08.592Z,48.52
2023-03-28T14:32:37.823Z,47.76
2023-03-28T14:35:01.459Z,47.14
2023-03-28T14:37:27.948Z,47.06
2023-03-28T14:39:54.387Z,47.10
2023-03-28T14:42:20.732Z,46.67
2023-03-28T14:44:47.113Z,46.39
2023-03-28T14:47:13.525Z,45.39
2023-03-28T14:49:39.920Z,45.26
2023-03-28T14:52:06.313Z,45.16
2023-03-28T14:54:32.889Z,44.41
2023-03-28T14:56:59.161Z,44.28
2023-03-28T14:59:25.485Z,44.34
2023-03-28T15:01:51.905Z,43.11
2023-03-28T15:04:18.149Z,43.31
2023-03-28T15:06:44.535Z,43.44
2023-03-28T15:09:10.868Z,42.87
2023-03-28T15:11:37.213Z,43.44
2023-03-28T15:14:04.390Z,43.73
2023-03-28T15:16:30.853Z,42.98
2023-03-28T15:18:57.403Z,43.13
2023-03-28T15:21:23.844Z,46.92
2023-03-28T15:23:50.140Z,45.51
2023-03-28T15:26:16.545Z,43.94
2023-03-28T15:28:42.860Z,43.33
2023-03-28T15:31:09.969Z,43.39
2023-03-28T15:33:36.273Z,43.68
2023-03-28T15:36:02.682Z,43.51
2023-03-28T15:38:29.310Z,43.71
2023-03-28T15:40:55.665Z,43.84
2023-03-28T15:43:23.151Z,44.15
2023-03-28T15:45:49.612Z,44.21
2023-03-28T15:48:15.987Z,44.00
2023-03-28T15:50:42.377Z,44.24
2023-03-28T15:53:08.764Z,44.03
2023-03-28T15:55:35.157Z,44.25
2023-03-28T15:58:01.506Z,44.59
2023-03-28T16:00:27.868Z,44.74
2023-03-28T16:02:55.749Z,44.75
2023-03-28T16:05:21.945Z,45.20
2023-03-28T16:07:48.430Z,45.43
2023-03-28T16:10:24.570Z,45.64
2023-03-28T16:12:57.074Z,45.88
2023-03-28T16:15:23.569Z,46.24
2023-03-28T16:17:55.456Z,46.92
2023-03-28T16:20:22.917Z,46.79
2023-03-28T16:22:49.735Z,46.82
2023-03-28T16:25:16.137Z,46.98
2023-03-28T16:27:46.149Z,47.21
2023-03-28T16:30:13.212Z,47.22
2023-03-28T16:32:39.674Z,47.39
2023-03-28T16:35:06.163Z,47.25
2023-03-28T16:37:32.647Z,46.65
2023-03-28T16:40:03.566Z,46.35
2023-03-28T16:42:31.261Z,46.09
2023-03-28T16:44:57.974Z,45.98
2023-03-28T16:47:24.666Z,45.86
2023-03-28T16:49:51.372Z,45.69
2023-03-28T16:52:19.765Z,45.61
2023-03-28T16:54:47.281Z,45.75
2023-03-28T16:57:13.648Z,45.67
2023-03-28T16:59:41.049Z,45.20
2023-03-28T17:02:07.623Z,44.94
2023-03-28T17:04:33.974Z,46.02
2023-03-28T17:07:00.363Z,47.54
2023-03-28T17:09:26.710Z,47.71
2023-03-28T17:11:53.122Z,47.85
2023-03-28T17:14:19.654Z,47.75
2023-03-28T17:16:46.033Z,48.06
2023-03-28T17:19:12.382Z,48.50
2023-03-28T17:21:39.932Z,48.73
2023-03-28T17:24:06.286Z,48.84
2023-03-28T17:26:33.508Z,48.95
2023-03-28T17:28:59.881Z,49.12
2023-03-28T17:31:26.359Z,49.23
2023-03-28T17:33:55.239Z,49.00
2023-03-28T17:36:22.106Z,49.34
2023-03-28T17:38:48.974Z,52.49
2023-03-28T17:41:22.829Z,53.22
2023-03-28T17:43:49.266Z,54.15
2023-03-28T17:46:15.726Z,54.92
2023-03-28T17:48:42.201Z,55.74
2023-03-28T17:51:08.603Z,56.60
2023-03-28T17:53:35.129Z,57.51
2023-03-28T17:56:01.793Z,58.38
2023-03-28T17:58:27.886Z,66.60
2023-03-28T18:00:54.890Z,73.28
2023-03-28T18:03:21.272Z,75.72
2023-03-28T18:05:47.593Z,76.22
2023-03-28T18:08:14.000Z,76.74
2023-03-28T18:10:40.573Z,77.20
2023-03-28T18:13:07.083Z,77.62
2023-03-28T18:15:33.437Z,78.01
2023-03-28T18:17:59.958Z,78.25
2023-03-28T18:20:26.325Z,78.54
2023-03-28T18:22:52.698Z,78.72
2023-03-28T18:25:19.137Z,78.97
2023-03-28T18:27:45.457Z,79.19
2023-03-28T18:30:11.814Z,79.43
2023-03-28T18:32:38.215Z,79.69
2023-03-28T18:35:04.534Z,79.96
2023-03-28T18:37:30.940Z,80.13
2023-03-28T18:39:57.323Z,80.39
2023-03-28T18:42:23.703Z,80.68
2023-03-28T18:44:50.112Z,80.90
2023-03-28T18:47:16.467Z,81.17
2023-03-28T18:49:43.342Z,81.46
2023-03-28T18:52:09.837Z,81.68
2023-03-28T18:54:36.278Z,81.91
2023-03-28T18:57:04.923Z,82.04
2023-03-28T18:59:31.201Z,82.32
2023-03-28T19:01:57.502Z,82.51
2023-03-28T19:04:23.968Z,82.67
2023-03-28T19:06:50.398Z,82.82
2023-03-28T19:09:16.826Z,83.04
2023-03-28T19:11:43.295Z,83.21
2023-03-28T19:14:09.642Z,83.35
2023-03-28T19:16:36.106Z,83.52
2023-03-28T19:19:02.435Z,83.68
2023-03-28T19:21:28.750Z,83.80
2023-03-28T19:23:55.206Z,83.95
2023-03-28T19:26:21.549Z,84.00
2023-03-28T19:28:47.904Z,84.13
2023-03-28T19:31:14.490Z,84.19
2023-03-28T19:33:40.622Z,84.43
2023-03-28T19:36:07.547Z,84.53
2023-03-28T19:38:33.802Z,84.62
2023-03-28T19:41:00.210Z,84.72
2023-03-28T19:43:27.193Z,84.87
2023-03-28T19:45:53.649Z,85.06
2023-03-28T19:48:20.023Z,85.11
2023-03-28T19:50:46.332Z,85.23
2023-03-28T19:53:12.720Z,85.32
2023-03-28T19:55:39.119Z,85.45
2023-03-28T19:58:05.503Z,85.53
2023-03-28T20:00:31.856Z,85.60
2023-03-28T20:02:58.533Z,85.67
2023-03-28T20:05:24.761Z,85.79
2023-03-28T20:07:51.139Z,85.99
2023-03-28T20:10:17.540Z,86.10
2023-03-28T20:12:43.916Z,86.25
2023-03-28T20:15:11.310Z,86.29
2023-03-28T20:17:37.799Z,86.48
2023-03-28T20:20:03.983Z,86.49
2023-03-28T20:22:30.323Z,86.66
2023-03-28T20:24:56.699Z,86.69
2023-03-28T20:27:23.086Z,86.77
2023-03-28T20:29:49.448Z,86.82
2023-03-28T20:32:15.810Z,86.94
2023-03-28T20:34:42.249Z,87.06
2023-03-28T20:37:08.592Z,87.09
2023-03-28T20:39:34.970Z,87.11
2023-03-28T20:42:01.586Z,87.21
2023-03-28T20:44:27.945Z,87.28
2023-03-28T20:46:54.402Z,87.43
2023-03-28T20:49:20.958Z,87.46
2023-03-28T20:51:47.591Z,87.51
2023-03-28T20:54:13.946Z,87.56
2023-03-28T20:56:40.292Z,87.67
2023-03-28T20:59:06.805Z,87.67
2023-03-28T21:01:33.205Z,87.75
2023-03-28T21:03:59.450Z,87.82
2023-03-28T21:06:25.860Z,88.03
2023-03-28T21:08:52.279Z,88.19
2023-03-28T21:11:18.606Z,88.29
2023-03-28T21:13:44.963Z,88.41
2023-03-28T21:16:11.420Z,88.60
2023-03-28T21:18:37.730Z,88.75
2023-03-28T21:21:04.232Z,89.07
2023-03-28T21:23:30.630Z,89.37
2023-03-28T21:25:57.001Z,89.61
2023-03-28T21:28:23.361Z,89.99
2023-03-28T21:30:49.791Z,90.37
2023-03-28T21:33:16.204Z,90.69
2023-03-28T21:35:42.638Z,90.99
2023-03-28T21:38:10.661Z,91.33
2023-03-28T21:40:35.436Z,91.56
2023-03-28T21:43:01.921Z,91.84
2023-03-28T21:45:28.343Z,92.14
2023-03-28T21:47:54.701Z,92.34
2023-03-28T21:50:21.158Z,92.54
2023-03-28T21:52:47.520Z,92.69
2023-03-28T21:55:15.169Z,92.91
2023-03-28T21:57:41.540Z,93.00
2023-03-28T22:00:08.140Z,93.11
2023-03-28T22:02:34.545Z,93.14
2023-03-28T22:05:00.909Z,93.21
2023-03-28T22:07:27.534Z,93.18
2023-03-28T22:09:53.970Z,93.13
2023-03-28T22:12:22.695Z,93.07
2023-03-28T22:14:49.206Z,92.92
2023-03-28T22:17:15.489Z,92.86
2023-03-28T22:19:41.836Z,92.67
2023-03-28T22:22:08.157Z,92.54
2023-03-28T22:24:34.539Z,92.35
2023-03-28T22:27:00.892Z,92.31
2023-03-28T22:29:27.280Z,92.19
2023-03-28T22:31:53.685Z,92.22
2023-03-28T22:34:19.993Z,92.10
2023-03-28T22:36:46.360Z,92.09
2023-03-28T22:39:12.684Z,92.03
2023-03-28T22:41:39.084Z,91.97
2023-03-28T22:44:05.452Z,91.89
2023-03-28T22:46:31.806Z,91.89
2023-03-28T22:48:58.154Z,91.83
2023-03-28T22:51:24.690Z,91.82
2023-03-28T22:53:51.004Z,91.79
2023-03-28T22:56:17.604Z,91.66
2023-03-28T22:58:43.961Z,91.66
2023-03-28T23:01:10.307Z,91.55
2023-03-28T23:03:36.793Z,91.44
2023-03-28T23:06:03.161Z,91.36
2023-03-28T23:08:29.493Z,91.22
2023-03-28T23:10:55.897Z,91.25
2023-03-28T23:13:22.212Z,91.18
2023-03-28T23:15:48.600Z,91.17
2023-03-28T23:18:14.925Z,91.08
2023-03-28T23:20:41.228Z,91.07
2023-03-28T23:23:07.792Z,90.97
2023-03-28T23:25:34.136Z,90.87
2023-03-28T23:28:00.672Z,90.96
2023-03-28T23:30:27.030Z,91.00
2023-03-28T23:32:53.547Z,91.02
2023-03-28T23:35:19.882Z,90.98
2023-03-28T23:37:46.198Z,91.03
2023-03-28T23:40:12.554Z,90.99
2023-03-28T23:42:38.887Z,90.99
2023-03-28T23:45:05.278Z,91.04
2023-03-28T23:47:31.858Z,91.00
2023-03-28T23:49:59.239Z,90.99
2023-03-28T23:52:25.643Z,90.97
2023-03-28T23:54:52.086Z,91.06
2023-03-28T23:57:18.566Z,91.04
2023-03-28T23:59:44.819Z,91.08
